Time;durP1;ratioP1;P1;durP2;ratioP2;P2;SDS_P1;SDS_P2;PMS_P1;PMS_P2;Temp;Humidity;BMP_temperature;BMP_pressure;BME280_temperature;BME280_humidity;BME280_pressure;Samples;Min_cycle;Max_cycle;Signal;HPM_P1;HPM_P2
2023/09/28 00:00:38;;;;;;;15.80;10.43;;;;;;;;;;5009916;28;20073;-72
2023/09/28 00:03:05;;;;;;;12.93;9.27;;;;;;;;;;5014146;28;20029;-72
2023/09/28 00:05:32;;;;;;;15.70;9.70;;;;;;;;;;5028075;28;20104;-72
2023/09/28 00:08:00;;;;;;;13.15;9.85;;;;;;;;;;5033914;28;20034;-72
2023/09/28 00:10:26;;;;;;;10.98;9.70;;;;;;;;;;5034157;28;20029;-72
2023/09/28 00:12:53;;;;;;;12.20;9.70;;;;;;;;;;5033656;28;20029;-71
2023/09/28 00:15:20;;;;;;;12.60;9.68;;;;;;;;;;5022174;28;20049;-71
2023/09/28 00:17:47;;;;;;;13.43;9.63;;;;;;;;;;5014161;28;20030;-71
2023/09/28 00:20:17;;;;;;;12.20;9.43;;;;;;;;;;5020336;28;20087;-71
2023/09/28 00:22:43;;;;;;;12.77;9.85;;;;;;;;;;5013536;28;20036;-72
2023/09/28 00:25:10;;;;;;;13.70;10.00;;;;;;;;;;5016141;28;20026;-72
2023/09/28 00:27:37;;;;;;;11.38;10.27;;;;;;;;;;5020191;28;20034;-72
2023/09/28 00:30:04;;;;;;;12.48;9.32;;;;;;;;;;5033589;28;20450;-72
2023/09/28 00:32:31;;;;;;;11.02;9.30;;;;;;;;;;5016977;28;20025;-72
2023/09/28 00:34:57;;;;;;;10.95;9.82;;;;;;;;;;5020711;28;20028;-72
2023/09/28 00:37:23;;;;;;;12.65;9.48;;;;;;;;;;5013620;28;20383;-72
2023/09/28 00:39:49;;;;;;;11.60;9.60;;;;;;;;;;5018067;28;20025;-72
2023/09/28 00:42:16;;;;;;;11.50;9.05;;;;;;;;;;4994446;28;20033;-72
2023/09/28 00:44:42;;;;;;;11.80;9.45;;;;;;;;;;5017860;28;20045;-72
2023/09/28 00:47:10;;;;;;;17.63;10.63;;;;;;;;;;5013079;28;20035;-72
2023/09/28 00:49:36;;;;;;;12.35;9.48;;;;;;;;;;5011537;28;20038;-72
2023/09/28 00:52:03;;;;;;;12.35;9.10;;;;;;;;;;5012077;28;20023;-72
2023/09/28 00:54:29;;;;;;;13.23;10.55;;;;;;;;;;5012820;28;20408;-72
2023/09/28 00:56:55;;;;;;;13.05;10.52;;;;;;;;;;5013287;28;20026;-72
2023/09/28 00:59:21;;;;;;;12.80;10.82;;;;;;;;;;4996621;28;20034;-72
2023/09/28 01:01:47;;;;;;;12.73;11.27;;;;;;;;;;5025930;28;20029;-71
2023/09/28 01:04:14;;;;;;;13.13;10.65;;;;;;;;;;4993727;28;20028;-72
2023/09/28 01:06:41;;;;;;;15.25;11.00;;;;;;;;;;5019527;28;20034;-72
2023/09/28 01:09:08;;;;;;;14.50;11.07;;;;;;;;;;5011113;28;20025;-72
2023/09/28 01:11:36;;;;;;;13.65;10.30;;;;;;;;;;5015951;28;20077;-71
2023/09/28 01:14:02;;;;;;;14.55;11.63;;;;;;;;;;5012565;28;20042;-71
2023/09/28 01:16:28;;;;;;;13.45;11.25;;;;;;;;;;5013748;28;20093;-71
2023/09/28 01:18:54;;;;;;;14.98;11.88;;;;;;;;;;5007875;28;20034;-71
2023/09/28 01:21:21;;;;;;;13.43;11.38;;;;;;;;;;5025088;28;20101;-71
2023/09/28 01:23:47;;;;;;;15.30;11.95;;;;;;;;;;5019091;28;20034;-71
2023/09/28 01:26:13;;;;;;;17.60;13.57;;;;;;;;;;4989724;28;20038;-71
2023/09/28 01:28:41;;;;;;;16.17;13.60;;;;;;;;;;5011276;28;20552;-71
2023/09/28 01:31:07;;;;;;;16.60;13.95;;;;;;;;;;5004135;28;20044;-72
2023/09/28 01:33:33;;;;;;;19.40;13.32;;;;;;;;;;5010370;28;20417;-71
2023/09/28 01:35:59;;;;;;;16.98;12.90;;;;;;;;;;5011830;28;20109;-71
2023/09/28 01:38:25;;;;;;;17.70;13.38;;;;;;;;;;5005094;28;20101;-71
2023/09/28 01:40:51;;;;;;;15.38;13.32;;;;;;;;;;4998130;28;20452;-71
2023/09/28 01:43:17;;;;;;;14.82;13.10;;;;;;;;;;5000793;28;20058;-71
2023/09/28 01:45:43;;;;;;;20.52;14.00;;;;;;;;;;5012035;28;20551;-71
2023/09/28 01:48:09;;;;;;;15.48;13.73;;;;;;;;;;5003375;28;20050;-71
2023/09/28 01:50:35;;;;;;;17.27;14.07;;;;;;;;;;5013563;28;20496;-71
2023/09/28 01:53:02;;;;;;;18.00;13.45;;;;;;;;;;5007713;28;20030;-71
2023/09/28 01:55:28;;;;;;;18.23;13.57;;;;;;;;;;4998549;28;20137;-71
2023/09/28 01:57:54;;;;;;;19.67;13.95;;;;;;;;;;5009327;28;20057;-71
2023/09/28 02:00:22;;;;;;;15.05;12.48;;;;;;;;;;4992308;28;20038;-71
2023/09/28 02:02:48;;;;;;;17.42;12.98;;;;;;;;;;5013455;28;20069;-71
2023/09/28 02:05:18;;;;;;;19.33;14.15;;;;;;;;;;5018951;28;20034;-71
2023/09/28 02:07:45;;;;;;;16.50;13.07;;;;;;;;;;4994773;28;20038;-71
2023/09/28 02:10:11;;;;;;;19.88;13.75;;;;;;;;;;4999352;28;20049;-71
2023/09/28 02:12:47;;;;;;;19.27;12.60;;;;;;;;;;5009187;28;20030;-71
2023/09/28 02:15:16;;;;;;;18.48;12.70;;;;;;;;;;5005845;28;20517;-71
2023/09/28 02:17:42;;;;;;;13.65;12.25;;;;;;;;;;5021895;28;20045;-71
2023/09/28 02:20:09;;;;;;;17.15;12.35;;;;;;;;;;5004211;28;20458;-71
2023/09/28 02:22:43;;;;;;;14.32;12.02;;;;;;;;;;5002996;28;20084;-71
2023/09/28 02:25:10;;;;;;;14.40;12.75;;;;;;;;;;4990089;28;20400;-72
2023/09/28 02:27:58;;;;;;;15.70;12.27;;;;;;;;;;5013000;28;20066;-72
2023/09/28 02:30:25;;;;;;;17.98;12.30;;;;;;;;;;5010283;28;20018;-72
2023/09/28 02:32:55;;;;;;;17.00;12.70;;;;;;;;;;5018625;28;20041;-72
2023/09/28 02:35:22;;;;;;;15.27;13.02;;;;;;;;;;5031828;28;20018;-72
2023/09/28 02:37:51;;;;;;;18.27;12.90;;;;;;;;;;5006142;28;20026;-72
2023/09/28 02:40:18;;;;;;;15.30;12.02;;;;;;;;;;5022981;28;20472;-70
2023/09/28 02:42:46;;;;;;;18.27;12.95;;;;;;;;;;5009556;28;20025;-69
2023/09/28 02:45:12;;;;;;;15.55;11.95;;;;;;;;;;5011784;28;20026;-71
2023/09/28 02:47:41;;;;;;;13.68;11.90;;;;;;;;;;5013527;28;20511;-72
2023/09/28 02:50:09;;;;;;;14.25;12.07;;;;;;;;;;5011610;28;20052;-71
2023/09/28 02:52:35;;;;;;;13.80;11.98;;;;;;;;;;5025140;28;20022;-71
2023/09/28 02:55:03;;;;;;;15.05;11.80;;;;;;;;;;5022468;28;20079;-71
2023/09/28 02:57:29;;;;;;;17.08;12.20;;;;;;;;;;5031508;28;20017;-72
2023/09/28 02:59:55;;;;;;;16.08;12.15;;;;;;;;;;5006022;28;20041;-71
2023/09/28 03:02:21;;;;;;;13.10;11.65;;;;;;;;;;4984031;28;20120;-71
2023/09/28 03:04:47;;;;;;;21.35;11.85;;;;;;;;;;5011534;28;20124;-71
2023/09/28 03:07:13;;;;;;;13.85;10.82;;;;;;;;;;4994070;28;20030;-71
2023/09/28 03:09:40;;;;;;;12.45;10.95;;;;;;;;;;5025485;28;20347;-71
2023/09/28 03:12:07;;;;;;;12.98;11.30;;;;;;;;;;5031306;28;20025;-71
2023/09/28 03:14:34;;;;;;;12.07;10.63;;;;;;;;;;5031029;28;20058;-71
2023/09/28 03:17:00;;;;;;;14.35;10.07;;;;;;;;;;5031168;28;20021;-71
2023/09/28 03:19:26;;;;;;;15.57;10.52;;;;;;;;;;5027964;28;20101;-71
2023/09/28 03:21:53;;;;;;;14.05;10.57;;;;;;;;;;5009767;28;20057;-71
2023/09/28 03:24:19;;;;;;;12.68;10.00;;;;;;;;;;4991512;28;20469;-71
2023/09/28 03:26:45;;;;;;;20.15;11.30;;;;;;;;;;5009140;28;20162;-71
2023/09/28 03:29:12;;;;;;;15.25;10.57;;;;;;;;;;5011316;28;20488;-71
2023/09/28 03:31:38;;;;;;;13.05;9.93;;;;;;;;;;5008200;28;20022;-71
2023/09/28 03:34:04;;;;;;;14.15;9.13;;;;;;;;;;4995160;28;20073;-71
2023/09/28 03:36:32;;;;;;;13.25;10.07;;;;;;;;;;5012118;28;20022;-72
2023/09/28 03:38:58;;;;;;;14.82;10.35;;;;;;;;;;5015380;28;20054;-71
2023/09/28 03:41:25;;;;;;;12.65;8.95;;;;;;;;;;5009538;28;20041;-71
2023/09/28 03:43:51;;;;;;;12.30;9.00;;;;;;;;;;5023634;28;20032;-71
2023/09/28 03:46:21;;;;;;;11.23;8.82;;;;;;;;;;4999515;28;20026;-71
2023/09/28 03:48:47;;;;;;;13.38;9.23;;;;;;;;;;5034286;28;20061;-71
2023/09/28 03:51:15;;;;;;;14.40;9.57;;;;;;;;;;5006858;28;20124;-71
2023/09/28 03:53:41;;;;;;;15.27;10.60;;;;;;;;;;5021903;28;20384;-71
2023/09/28 03:56:07;;;;;;;13.52;10.05;;;;;;;;;;5009272;28;20030;-72
2023/09/28 03:58:34;;;;;;;12.18;10.20;;;;;;;;;;5013763;28;20026;-73
2023/09/28 04:01:03;;;;;;;13.40;11.65;;;;;;;;;;4997118;28;20356;-71
2023/09/28 04:03:29;;;;;;;13.90;10.15;;;;;;;;;;5020228;28;20039;-71
2023/09/28 04:05:55;;;;;;;12.75;10.77;;;;;;;;;;5028992;28;20022;-71
2023/09/28 04:08:22;;;;;;;14.50;10.70;;;;;;;;;;5022494;28;20036;-71
2023/09/28 04:10:50;;;;;;;13.75;11.10;;;;;;;;;;5033955;28;20025;-72
2023/09/28 04:13:21;;;;;;;12.73;10.95;;;;;;;;;;5023397;28;20137;-71
2023/09/28 04:15:48;;;;;;;11.52;10.27;;;;;;;;;;5002622;28;20493;-72
2023/09/28 04:18:14;;;;;;;14.43;11.13;;;;;;;;;;5020011;28;20043;-71
2023/09/28 04:20:42;;;;;;;12.90;10.57;;;;;;;;;;5025617;28;20025;-71
2023/09/28 04:23:08;;;;;;;12.35;10.98;;;;;;;;;;5031183;28;20108;-71
2023/09/28 04:25:35;;;;;;;12.15;10.32;;;;;;;;;;5033811;28;20413;-71
2023/09/28 04:28:01;;;;;;;14.60;11.30;;;;;;;;;;5029245;28;20049;-72
2023/09/28 04:30:27;;;;;;;13.75;11.18;;;;;;;;;;5029560;28;20025;-72
2023/09/28 04:32:54;;;;;;;14.70;11.43;;;;;;;;;;5020388;28;20618;-71
2023/09/28 04:35:20;;;;;;;17.77;12.30;;;;;;;;;;5004216;28;20480;-71
2023/09/28 04:37:47;;;;;;;13.07;11.00;;;;;;;;;;5017967;28;20033;-72
2023/09/28 04:40:13;;;;;;;15.75;12.30;;;;;;;;;;5018508;28;20486;-71
2023/09/28 04:42:40;;;;;;;14.05;11.75;;;;;;;;;;5014538;28;20476;-71
2023/09/28 04:45:06;;;;;;;13.60;12.18;;;;;;;;;;5024392;28;20029;-72
2023/09/28 04:47:32;;;;;;;14.85;12.00;;;;;;;;;;5033133;28;20037;-72
2023/09/28 04:49:59;;;;;;;13.40;12.10;;;;;;;;;;5033225;28;20025;-71
2023/09/28 04:52:25;;;;;;;17.33;11.57;;;;;;;;;;5015820;28;20017;-71
2023/09/28 04:54:52;;;;;;;13.60;11.70;;;;;;;;;;5033184;28;20045;-71
2023/09/28 04:57:21;;;;;;;16.60;12.32;;;;;;;;;;5009431;28;20029;-71
2023/09/28 04:59:47;;;;;;;14.93;11.80;;;;;;;;;;5015163;28;20071;-71
2023/09/28 05:02:13;;;;;;;13.68;11.45;;;;;;;;;;5033022;28;20033;-71
2023/09/28 05:04:40;;;;;;;16.98;11.77;;;;;;;;;;4983881;28;20427;-71
2023/09/28 05:07:06;;;;;;;12.45;11.18;;;;;;;;;;5013169;28;20034;-71
2023/09/28 05:09:32;;;;;;;13.57;11.48;;;;;;;;;;5011427;28;20120;-71
2023/09/28 05:12:00;;;;;;;14.50;12.18;;;;;;;;;;5013093;28;20579;-71
2023/09/28 05:14:26;;;;;;;14.32;10.65;;;;;;;;;;4984375;28;20538;-71
2023/09/28 05:16:54;;;;;;;14.93;10.93;;;;;;;;;;4986926;28;20022;-71
2023/09/28 05:19:21;;;;;;;14.15;11.60;;;;;;;;;;5026629;28;20109;-72
2023/09/28 05:21:47;;;;;;;14.63;11.57;;;;;;;;;;4999704;28;20029;-72
2023/09/28 05:24:13;;;;;;;15.82;11.48;;;;;;;;;;5031529;28;20036;-72
2023/09/28 05:26:39;;;;;;;13.75;12.35;;;;;;;;;;5014810;28;20083;-71
2023/09/28 05:29:05;;;;;;;16.15;11.13;;;;;;;;;;5012606;28;20114;-72
2023/09/28 05:31:31;;;;;;;15.02;12.13;;;;;;;;;;5009905;28;20061;-72
2023/09/28 05:33:57;;;;;;;16.00;11.05;;;;;;;;;;5012417;28;20025;-72
2023/09/28 05:36:23;;;;;;;15.88;12.15;;;;;;;;;;5011224;28;20448;-72
2023/09/28 05:38:49;;;;;;;17.33;11.55;;;;;;;;;;5012593;28;20018;-72
2023/09/28 05:41:15;;;;;;;14.57;12.13;;;;;;;;;;5007849;28;20373;-72
2023/09/28 05:43:42;;;;;;;15.55;12.55;;;;;;;;;;5007068;28;20661;-72
2023/09/28 05:46:09;;;;;;;13.38;11.25;;;;;;;;;;5005136;28;20054;-72
2023/09/28 05:48:35;;;;;;;15.57;12.93;;;;;;;;;;5003580;28;20487;-71
2023/09/28 05:51:01;;;;;;;14.15;11.82;;;;;;;;;;5008111;28;20029;-71
2023/09/28 05:53:28;;;;;;;13.68;10.73;;;;;;;;;;4992744;28;20029;-71
2023/09/28 05:55:55;;;;;;;12.65;11.07;;;;;;;;;;5003618;28;20034;-71
2023/09/28 05:58:21;;;;;;;13.07;10.50;;;;;;;;;;4994493;28;20053;-71
2023/09/28 06:00:47;;;;;;;16.90;10.90;;;;;;;;;;5012234;28;20057;-71
2023/09/28 06:03:13;;;;;;;14.95;11.02;;;;;;;;;;5012123;28;20071;-71
2023/09/28 06:05:40;;;;;;;16.10;9.60;;;;;;;;;;5007835;28;20022;-70
2023/09/28 06:08:06;;;;;;;13.95;10.13;;;;;;;;;;4991984;28;20048;-70
2023/09/28 06:10:33;;;;;;;14.55;10.80;;;;;;;;;;5011737;28;20022;-72
2023/09/28 06:12:59;;;;;;;15.75;11.68;;;;;;;;;;5012285;28;20396;-60
2023/09/28 06:15:25;;;;;;;16.50;11.00;;;;;;;;;;5003637;28;20030;-65
2023/09/28 06:17:51;;;;;;;13.63;9.80;;;;;;;;;;5007101;28;20150;-66
2023/09/28 06:20:17;;;;;;;17.55;10.40;;;;;;;;;;4998320;28;20038;-70
2023/09/28 06:22:44;;;;;;;16.40;9.90;;;;;;;;;;5003047;28;20506;-69
2023/09/28 06:25:10;;;;;;;16.77;10.50;;;;;;;;;;5010186;28;20403;-69
2023/09/28 06:27:39;;;;;;;15.48;10.40;;;;;;;;;;5001793;28;20039;-69
2023/09/28 06:30:05;;;;;;;15.63;11.07;;;;;;;;;;5000480;28;20076;-69
2023/09/28 06:32:31;;;;;;;16.25;10.70;;;;;;;;;;4996345;28;20027;-69
2023/09/28 06:34:57;;;;;;;15.10;10.90;;;;;;;;;;4999209;28;20434;-69
2023/09/28 06:37:23;;;;;;;13.32;11.27;;;;;;;;;;4997589;28;20030;-69
2023/09/28 06:39:49;;;;;;;15.02;10.65;;;;;;;;;;5002708;28;20076;-69
2023/09/28 06:42:37;;;;;;;18.10;10.95;;;;;;;;;;5002933;28;20491;-69
2023/09/28 06:45:03;;;;;;;18.48;11.07;;;;;;;;;;5002394;28;20073;-71
2023/09/28 06:47:29;;;;;;;15.43;10.50;;;;;;;;;;4983227;28;20051;-70
2023/09/28 06:49:56;;;;;;;13.88;11.68;;;;;;;;;;5019168;28;20715;-70
2023/09/28 06:52:22;;;;;;;16.95;12.23;;;;;;;;;;5031527;28;20024;-70
2023/09/28 06:54:48;;;;;;;19.02;11.73;;;;;;;;;;5014786;28;20116;-62
2023/09/28 06:57:14;;;;;;;21.05;11.80;;;;;;;;;;5002693;28;20034;-63
2023/09/28 06:59:40;;;;;;;14.95;11.38;;;;;;;;;;5001425;28;20080;-69
2023/09/28 07:02:06;;;;;;;18.25;10.20;;;;;;;;;;5012469;28;20099;-68
2023/09/28 07:04:32;;;;;;;17.10;10.55;;;;;;;;;;5028056;28;20034;-69
2023/09/28 07:06:58;;;;;;;17.27;11.15;;;;;;;;;;5007402;28;20034;-69
2023/09/28 07:12:28;;;;;;;16.92;10.82;;;;;;;;;;5003437;28;20041;-69
2023/09/28 07:14:54;;;;;;;17.42;10.85;;;;;;;;;;5017733;28;20045;-69
2023/09/28 07:17:20;;;;;;;19.33;11.20;;;;;;;;;;5010278;28;20026;-69
2023/09/28 07:19:46;;;;;;;13.52;10.98;;;;;;;;;;5013538;28;20061;-69
2023/09/28 07:22:12;;;;;;;17.85;11.27;;;;;;;;;;5033003;28;20067;-71
2023/09/28 07:24:38;;;;;;;17.77;10.18;;;;;;;;;;5010863;28;20132;-72
2023/09/28 07:27:04;;;;;;;15.02;10.07;;;;;;;;;;5016863;28;20166;-71
2023/09/28 07:29:30;;;;;;;20.65;10.70;;;;;;;;;;5010662;28;20034;-60
2023/09/28 07:31:56;;;;;;;16.85;10.50;;;;;;;;;;4995813;28;20029;-63
2023/09/28 07:34:23;;;;;;;15.00;10.07;;;;;;;;;;5019104;28;20031;-65
2023/09/28 07:36:50;;;;;;;15.05;10.73;;;;;;;;;;4994124;28;20038;-63
2023/09/28 07:39:16;;;;;;;14.20;10.30;;;;;;;;;;5013099;28;20471;-64
2023/09/28 07:41:44;;;;;;;17.48;11.65;;;;;;;;;;5005929;28;20054;-66
2023/09/28 07:44:10;;;;;;;18.85;11.88;;;;;;;;;;5021791;28;20021;-64
2023/09/28 07:46:36;;;;;;;17.00;11.13;;;;;;;;;;5013940;28;20038;-72
2023/09/28 07:49:02;;;;;;;21.30;12.65;;;;;;;;;;5015998;28;20474;-74
2023/09/28 07:51:28;;;;;;;18.13;12.68;;;;;;;;;;5011619;28;20079;-63
2023/09/28 07:53:55;;;;;;;14.77;10.68;;;;;;;;;;5012144;28;20029;-66
2023/09/28 07:56:21;;;;;;;14.40;10.13;;;;;;;;;;5016230;28;20037;-65
2023/09/28 08:01:50;;;;;;;16.27;11.93;;;;;;;;;;5009650;28;20387;-60
2023/09/28 08:04:16;;;;;;;18.27;10.32;;;;;;;;;;5012868;28;20026;-61
2023/09/28 08:06:42;;;;;;;19.30;10.38;;;;;;;;;;4992059;28;20062;-61
2023/09/28 08:09:13;;;;;;;17.23;8.95;;;;;;;;;;4998530;28;20045;-71
2023/09/28 08:11:40;;;;;;;13.38;8.73;;;;;;;;;;5004162;28;20030;-63
2023/09/28 08:14:06;;;;;;;17.85;8.85;;;;;;;;;;5003248;28;20073;-63
2023/09/28 08:16:32;;;;;;;16.73;9.07;;;;;;;;;;5010169;28;20451;-66
2023/09/28 08:18:58;;;;;;;14.65;9.52;;;;;;;;;;5010928;28;20037;-62
2023/09/28 08:21:26;;;;;;;14.90;8.60;;;;;;;;;;5007146;28;20068;-73
2023/09/28 08:23:52;;;;;;;11.93;7.82;;;;;;;;;;5013404;28;20376;-62
2023/09/28 08:26:18;;;;;;;17.80;7.80;;;;;;;;;;4997808;28;20064;-73
2023/09/28 08:28:44;;;;;;;12.98;8.00;;;;;;;;;;5006769;28;20030;-72
2023/09/28 08:31:10;;;;;;;11.70;7.80;;;;;;;;;;5009829;28;20424;-74
2023/09/28 08:33:37;;;;;;;14.23;7.75;;;;;;;;;;5002653;28;20026;-67
2023/09/28 08:36:06;;;;;;;11.75;7.65;;;;;;;;;;5002075;28;20045;-72
2023/09/28 08:38:32;;;;;;;13.68;8.75;;;;;;;;;;5008100;28;20105;-63
2023/09/28 08:41:01;;;;;;;9.70;7.82;;;;;;;;;;4988324;28;20199;-65
2023/09/28 08:43:33;;;;;;;15.15;8.57;;;;;;;;;;4998679;28;20040;-67
2023/09/28 08:46:02;;;;;;;12.57;7.88;;;;;;;;;;5009894;28;20030;-68
2023/09/28 08:48:28;;;;;;;13.55;8.48;;;;;;;;;;5005738;28;22276;-61
2023/09/28 08:50:59;;;;;;;11.43;7.88;;;;;;;;;;4995305;28;20395;-60
2023/09/28 08:53:26;;;;;;;11.48;7.90;;;;;;;;;;4984001;28;20407;-62
2023/09/28 08:55:52;;;;;;;12.15;7.45;;;;;;;;;;5016126;28;20033;-68
2023/09/28 08:58:19;;;;;;;10.15;6.93;;;;;;;;;;5003951;28;20023;-60
2023/09/28 09:00:45;;;;;;;11.38;7.65;;;;;;;;;;5006790;28;20030;-59
2023/09/28 09:03:12;;;;;;;14.15;7.78;;;;;;;;;;5002622;28;20118;-61
2023/09/28 09:05:40;;;;;;;12.00;8.85;;;;;;;;;;5018902;28;20388;-66
2023/09/28 09:08:06;;;;;;;11.52;8.52;;;;;;;;;;4994519;28;20117;-65
2023/09/28 09:10:32;;;;;;;9.63;7.53;;;;;;;;;;5021568;28;20379;-63
2023/09/28 09:12:58;;;;;;;11.95;8.30;;;;;;;;;;5012119;28;20029;-74
2023/09/28 09:15:25;;;;;;;16.50;8.65;;;;;;;;;;4999844;28;20042;-64
2023/09/28 09:17:57;;;;;;;13.98;9.10;;;;;;;;;;5008463;28;20391;-64
2023/09/28 09:20:24;;;;;;;15.02;8.20;;;;;;;;;;5000094;28;20030;-65
2023/09/28 09:22:50;;;;;;;12.90;7.45;;;;;;;;;;4997750;28;20022;-66
2023/09/28 09:25:16;;;;;;;9.88;7.75;;;;;;;;;;5006136;28;20361;-66
2023/09/28 09:27:43;;;;;;;13.20;8.10;;;;;;;;;;5000571;28;20049;-67
2023/09/28 09:30:09;;;;;;;12.18;7.40;;;;;;;;;;5010411;28;20072;-64
2023/09/28 09:32:37;;;;;;;14.63;8.73;;;;;;;;;;5019473;28;20022;-63
2023/09/28 09:35:04;;;;;;;11.13;7.80;;;;;;;;;;5006161;28;20017;-63
2023/09/28 09:37:30;;;;;;;12.85;7.82;;;;;;;;;;5007028;28;20044;-69
2023/09/28 09:40:16;;;;;;;10.27;6.78;;;;;;;;;;5007347;28;20026;-69
2023/09/28 09:42:43;;;;;;;10.15;6.80;;;;;;;;;;5014867;28;20095;-64
2023/09/28 09:45:11;;;;;;;12.65;7.90;;;;;;;;;;5007377;28;20018;-64
2023/09/28 09:47:37;;;;;;;12.52;8.00;;;;;;;;;;5005219;28;20034;-65
2023/09/28 09:50:03;;;;;;;8.70;7.43;;;;;;;;;;4992483;28;20061;-64
2023/09/28 09:52:29;;;;;;;13.30;7.20;;;;;;;;;;4999975;28;20108;-63
2023/09/28 09:54:56;;;;;;;8.43;7.32;;;;;;;;;;5026590;28;20467;-63
2023/09/28 09:57:24;;;;;;;10.88;6.97;;;;;;;;;;5027215;28;20028;-63
2023/09/28 09:59:53;;;;;;;11.52;6.35;;;;;;;;;;5007060;28;20030;-65
2023/09/28 10:02:24;;;;;;;13.30;7.40;;;;;;;;;;5031850;28;20021;-73
2023/09/28 10:04:53;;;;;;;12.20;7.22;;;;;;;;;;5004051;28;20045;-70
2023/09/28 10:07:22;;;;;;;11.05;7.05;;;;;;;;;;5003998;28;20081;-74
2023/09/28 10:09:48;;;;;;;11.07;7.38;;;;;;;;;;5008621;28;20038;-65
2023/09/28 10:12:15;;;;;;;8.00;6.90;;;;;;;;;;5008137;28;20036;-69
2023/09/28 10:14:41;;;;;;;10.20;7.22;;;;;;;;;;5010296;28;20053;-69
2023/09/28 10:17:10;;;;;;;11.85;5.95;;;;;;;;;;5012084;28;20048;-69
2023/09/28 10:19:37;;;;;;;16.05;7.00;;;;;;;;;;5031724;28;20132;-69
2023/09/28 10:22:04;;;;;;;9.63;6.15;;;;;;;;;;5026731;28;20087;-69
2023/09/28 10:24:31;;;;;;;14.90;8.00;;;;;;;;;;5029528;28;20459;-69
2023/09/28 10:26:57;;;;;;;11.10;7.10;;;;;;;;;;5019155;28;20025;-69
2023/09/28 10:29:30;;;;;;;11.00;6.65;;;;;;;;;;5023434;28;20611;-69
2023/09/28 10:31:57;;;;;;;9.07;7.18;;;;;;;;;;5020371;28;20057;-69
2023/09/28 10:34:24;;;;;;;11.05;8.20;;;;;;;;;;5024640;28;20046;-68
2023/09/28 10:37:10;;;;;;;13.82;7.45;;;;;;;;;;4992342;28;20152;-69
2023/09/28 10:39:36;;;;;;;11.52;8.10;;;;;;;;;;4989818;28;20365;-69
2023/09/28 10:42:12;;;;;;;12.80;7.25;;;;;;;;;;5015587;28;20022;-69
2023/09/28 10:45:05;;;;;;;10.05;7.30;;;;;;;;;;5020434;28;20084;-69
2023/09/28 10:47:32;;;;;;;10.18;7.65;;;;;;;;;;4994721;28;20141;-69
2023/09/28 10:49:59;;;;;;;11.38;7.25;;;;;;;;;;5027522;28;20104;-68
2023/09/28 10:52:25;;;;;;;8.43;6.80;;;;;;;;;;5015293;28;20065;-69
2023/09/28 10:54:52;;;;;;;12.15;7.43;;;;;;;;;;5029952;28;20166;-68
2023/09/28 10:57:19;;;;;;;8.98;6.63;;;;;;;;;;5026320;28;20100;-69
2023/09/28 10:59:45;;;;;;;9.68;7.05;;;;;;;;;;5025866;28;20034;-69
2023/09/28 11:02:12;;;;;;;7.88;6.38;;;;;;;;;;5014316;28;20018;-68
2023/09/28 11:04:39;;;;;;;12.93;8.68;;;;;;;;;;5011619;28;20045;-69
2023/09/28 11:07:06;;;;;;;10.85;7.63;;;;;;;;;;5013728;28;20530;-69
2023/09/28 11:09:32;;;;;;;12.48;8.00;;;;;;;;;;5017272;28;20105;-69
2023/09/28 11:11:58;;;;;;;9.60;7.88;;;;;;;;;;5014655;28;20575;-68
2023/09/28 11:14:27;;;;;;;9.43;6.57;;;;;;;;;;5014542;28;20073;-68
2023/09/28 11:16:53;;;;;;;8.38;6.57;;;;;;;;;;5035177;28;20084;-68
2023/09/28 11:19:20;;;;;;;9.68;6.65;;;;;;;;;;5031848;28;20030;-68
2023/09/28 11:21:46;;;;;;;10.27;6.80;;;;;;;;;;5024439;28;20029;-68
2023/09/28 11:24:12;;;;;;;11.18;7.70;;;;;;;;;;5035106;28;20359;-68
2023/09/28 11:26:42;;;;;;;8.57;7.18;;;;;;;;;;5034998;28;20041;-68
2023/09/28 11:29:09;;;;;;;10.32;7.20;;;;;;;;;;5021148;28;20030;-68
2023/09/28 11:31:37;;;;;;;8.90;7.38;;;;;;;;;;5020858;28;20041;-68
2023/09/28 11:34:03;;;;;;;16.27;7.60;;;;;;;;;;5013693;28;20460;-69
2023/09/28 11:36:31;;;;;;;12.77;8.90;;;;;;;;;;5032947;28;20022;-69
2023/09/28 11:38:57;;;;;;;12.80;7.78;;;;;;;;;;5034769;28;20022;-69
2023/09/28 11:41:23;;;;;;;15.38;8.00;;;;;;;;;;5034391;28;20032;-69
2023/09/28 11:43:53;;;;;;;13.45;8.88;;;;;;;;;;5034425;28;20096;-69
2023/09/28 11:46:22;;;;;;;12.65;8.23;;;;;;;;;;5020505;28;20033;-69
2023/09/28 11:49:02;;;;;;;13.48;6.82;;;;;;;;;;5020956;28;20041;-69
2023/09/28 11:51:29;;;;;;;9.50;6.85;;;;;;;;;;5033605;28;20360;-69
2023/09/28 11:53:56;;;;;;;12.57;8.10;;;;;;;;;;5013357;28;20037;-69
2023/09/28 11:56:23;;;;;;;10.00;8.00;;;;;;;;;;5027953;28;20422;-69
2023/09/28 11:58:49;;;;;;;12.93;7.00;;;;;;;;;;5023244;28;20054;-68
2023/09/28 12:01:15;;;;;;;10.32;8.15;;;;;;;;;;5017940;28;20535;-69
2023/09/28 12:03:41;;;;;;;10.07;7.65;;;;;;;;;;5034299;28;20052;-69
2023/09/28 12:06:07;;;;;;;8.82;7.18;;;;;;;;;;5034273;28;20108;-70
2023/09/28 12:08:33;;;;;;;10.63;7.10;;;;;;;;;;5034198;28;20029;-69
2023/09/28 12:10:59;;;;;;;13.30;7.13;;;;;;;;;;5034218;28;20030;-69
2023/09/28 12:13:26;;;;;;;9.77;7.30;;;;;;;;;;5031980;28;20129;-69
2023/09/28 12:15:54;;;;;;;8.40;7.32;;;;;;;;;;5034102;28;20074;-69
2023/09/28 12:18:20;;;;;;;12.15;7.10;;;;;;;;;;5034013;28;20055;-69
2023/09/28 12:20:47;;;;;;;8.10;6.65;;;;;;;;;;5019837;28;20018;-69
2023/09/28 12:23:13;;;;;;;12.82;6.88;;;;;;;;;;5033918;28;20032;-69
2023/09/28 12:25:40;;;;;;;9.32;6.53;;;;;;;;;;5033772;28;20025;-69
2023/09/28 12:28:07;;;;;;;14.40;7.28;;;;;;;;;;5012660;28;20034;-69
2023/09/28 12:30:33;;;;;;;8.23;6.80;;;;;;;;;;5027695;28;20379;-69
2023/09/28 12:33:01;;;;;;;12.15;7.07;;;;;;;;;;5019392;28;20025;-69
2023/09/28 12:35:28;;;;;;;11.10;7.65;;;;;;;;;;5012437;28;20029;-69
2023/09/28 12:37:54;;;;;;;8.32;7.57;;;;;;;;;;5031988;28;20025;-69
2023/09/28 12:40:20;;;;;;;10.68;7.63;;;;;;;;;;5033584;28;20052;-69
2023/09/28 12:42:47;;;;;;;11.75;6.47;;;;;;;;;;5033661;28;20037;-69
2023/09/28 12:45:13;;;;;;;12.65;7.72;;;;;;;;;;5012338;28;20061;-69
2023/09/28 12:47:39;;;;;;;11.20;7.13;;;;;;;;;;5033095;28;20033;-69
2023/09/28 12:50:05;;;;;;;9.77;6.82;;;;;;;;;;5033342;28;20026;-69
2023/09/28 12:52:31;;;;;;;10.10;7.03;;;;;;;;;;5033395;28;20022;-69
2023/09/28 12:54:58;;;;;;;10.35;6.82;;;;;;;;;;5033149;28;20544;-69
2023/09/28 12:57:24;;;;;;;8.68;7.30;;;;;;;;;;5011762;28;20023;-69
2023/09/28 12:59:51;;;;;;;10.90;6.95;;;;;;;;;;5027209;28;20167;-69
2023/09/28 13:02:17;;;;;;;10.25;6.85;;;;;;;;;;5032854;28;20399;-69
2023/09/28 13:04:43;;;;;;;11.32;7.68;;;;;;;;;;5033015;28;20111;-69
2023/09/28 13:07:09;;;;;;;9.50;7.88;;;;;;;;;;5011693;28;20169;-69
2023/09/28 13:09:35;;;;;;;11.52;7.35;;;;;;;;;;5015009;28;20387;-69
2023/09/28 13:12:01;;;;;;;9.75;7.68;;;;;;;;;;5032764;28;20033;-69
2023/09/28 13:14:27;;;;;;;8.73;7.40;;;;;;;;;;5032479;28;20525;-69
2023/09/28 13:16:55;;;;;;;12.50;8.07;;;;;;;;;;5032730;28;20079;-69
2023/09/28 13:19:25;;;;;;;8.95;7.57;;;;;;;;;;5027048;28;20030;-69
2023/09/28 13:21:52;;;;;;;9.80;7.43;;;;;;;;;;5025216;28;20056;-69
2023/09/28 13:24:18;;;;;;;8.55;7.55;;;;;;;;;;5032650;28;20025;-69
2023/09/28 13:26:44;;;;;;;16.67;8.18;;;;;;;;;;5032579;28;20025;-69
2023/09/28 13:29:10;;;;;;;7.97;7.20;;;;;;;;;;5032482;28;20116;-69
2023/09/28 13:31:37;;;;;;;9.27;7.30;;;;;;;;;;5032561;28;20048;-69
2023/09/28 13:34:03;;;;;;;11.70;6.78;;;;;;;;;;5032477;28;20029;-69
2023/09/28 13:36:29;;;;;;;10.02;7.07;;;;;;;;;;5028578;28;20029;-69
2023/09/28 13:38:55;;;;;;;9.30;7.63;;;;;;;;;;5032430;28;20096;-69
2023/09/28 13:41:26;;;;;;;12.32;8.07;;;;;;;;;;5022526;28;20061;-69
2023/09/28 13:43:52;;;;;;;10.05;7.40;;;;;;;;;;4986573;28;20441;-69
2023/09/28 13:46:18;;;;;;;10.90;7.47;;;;;;;;;;5022657;28;20026;-69
2023/09/28 13:48:44;;;;;;;11.13;7.65;;;;;;;;;;5031857;28;20056;-69
2023/09/28 13:51:11;;;;;;;12.70;7.70;;;;;;;;;;5032145;28;20108;-69
2023/09/28 13:53:37;;;;;;;9.73;7.88;;;;;;;;;;5032353;28;20096;-69
2023/09/28 13:56:04;;;;;;;11.27;7.90;;;;;;;;;;5032218;28;20030;-69
2023/09/28 13:58:31;;;;;;;8.73;7.10;;;;;;;;;;5031867;28;20052;-67
2023/09/28 14:00:57;;;;;;;10.27;7.75;;;;;;;;;;5032069;28;20116;-68
2023/09/28 14:03:23;;;;;;;11.98;7.10;;;;;;;;;;5031845;28;20096;-68
2023/09/28 14:05:50;;;;;;;8.60;7.70;;;;;;;;;;5031903;28;20072;-68
2023/09/28 14:08:17;;;;;;;11.10;7.57;;;;;;;;;;5031528;28;20220;-68
2023/09/28 14:10:43;;;;;;;11.52;6.97;;;;;;;;;;5032094;28;20040;-68
2023/09/28 14:13:09;;;;;;;11.93;8.07;;;;;;;;;;5031024;28;20057;-68
2023/09/28 14:15:36;;;;;;;11.00;7.72;;;;;;;;;;5031771;28;20080;-67
2023/09/28 14:18:02;;;;;;;9.85;7.13;;;;;;;;;;5031748;28;20035;-68
2023/09/28 14:20:28;;;;;;;12.38;7.93;;;;;;;;;;5017775;28;20022;-67
2023/09/28 14:22:55;;;;;;;8.82;7.75;;;;;;;;;;5031732;28;20033;-67
2023/09/28 14:25:21;;;;;;;8.95;7.25;;;;;;;;;;5031696;28;20073;-67
2023/09/28 14:27:47;;;;;;;12.10;7.40;;;;;;;;;;5031531;28;20034;-67
2023/09/28 14:30:14;;;;;;;8.35;6.97;;;;;;;;;;5010670;28;20093;-67